createdAt,value
2018-09-10T00:04:03.443Z,3.50
2018-09-10T00:09:09.263Z,3.67
2018-09-10T00:14:13.382Z,2.43
2018-09-10T00:19:17.462Z,2.10
2018-09-10T00:24:21.337Z,4.62
2018-09-10T00:29:25.350Z,2.43
2018-09-10T00:34:29.407Z,2.53
2018-09-10T00:39:33.419Z,3.20
2018-09-10T00:44:37.491Z,2.70
2018-09-10T00:49:41.514Z,3.73
2018-09-10T00:54:45.542Z,2.80
2018-09-10T00:59:49.550Z,2.93
2018-09-10T01:04:53.566Z,3.50
2018-09-10T01:09:57.582Z,2.23
2018-09-10T01:15:01.386Z,2.77
2018-09-10T01:20:05.566Z,2.90
2018-09-10T01:25:09.583Z,2.47
2018-09-10T01:30:13.599Z,2.63
2018-09-10T01:35:17.390Z,2.30
2018-09-10T01:40:21.628Z,4.73
2018-09-10T01:45:25.656Z,3.33
2018-09-10T01:50:29.673Z,2.40
2018-09-10T01:55:33.694Z,2.77
2018-09-10T02:00:37.506Z,2.40
2018-09-10T02:05:41.654Z,5.77
2018-09-10T02:10:45.718Z,2.77
2018-09-10T02:15:50.278Z,3.13
2018-09-10T02:20:54.075Z,2.60
2018-09-10T02:25:58.091Z,2.63
2018-09-10T02:31:02.138Z,2.80
2018-09-10T02:36:06.755Z,2.70
2018-09-10T02:41:10.798Z,2.93
2018-09-10T02:46:14.814Z,3.13
2018-09-10T02:51:18.874Z,2.60
2018-09-10T02:57:26.463Z,2.40
2018-09-10T03:02:30.570Z,3.63
2018-09-10T03:07:34.693Z,2.70
2018-09-10T03:12:38.756Z,2.50
2018-09-10T03:17:42.815Z,3.87
2018-09-10T03:22:46.889Z,3.37
2018-09-10T03:27:50.970Z,3.87
2018-09-10T03:32:54.785Z,2.92
2018-09-10T03:37:59.426Z,2.65
2018-09-10T03:43:03.474Z,3.27
2018-09-10T03:48:07.919Z,3.03
2018-09-10T03:53:11.962Z,3.10
2018-09-10T03:58:16.035Z,3.07
2018-09-10T04:03:20.169Z,5.33
2018-09-10T04:08:24.242Z,3.00
2018-09-10T04:13:28.068Z,3.80
2018-09-10T04:18:31.882Z,3.00
2018-09-10T04:23:35.964Z,3.23
2018-09-10T04:28:39.808Z,3.40
2018-09-10T04:33:43.798Z,2.97
2018-09-10T04:38:47.895Z,3.20
2018-09-10T04:43:51.985Z,3.30
2018-09-10T04:48:55.997Z,3.50
2018-09-10T04:53:59.814Z,4.03
2018-09-10T04:59:03.863Z,3.37
2018-09-10T05:04:09.637Z,3.93
2018-09-10T05:09:13.791Z,3.25
2018-09-10T05:14:17.599Z,4.53
2018-09-10T05:19:21.680Z,3.93
2018-09-10T05:24:25.734Z,3.60
2018-09-10T05:29:29.542Z,3.57
2018-09-10T05:34:33.572Z,4.00
2018-09-10T05:39:37.691Z,6.20
2018-09-10T05:44:41.718Z,3.83
2018-09-10T05:49:45.542Z,3.00
2018-09-10T05:54:49.643Z,3.20
2018-09-10T05:59:53.430Z,5.03
2018-09-10T06:04:57.226Z,3.07
2018-09-10T06:10:01.049Z,3.93
2018-09-10T06:15:05.456Z,3.70
2018-09-10T06:20:09.282Z,4.67
2018-09-10T06:25:13.350Z,4.27
2018-09-10T06:30:17.236Z,3.40
2018-09-10T06:35:21.081Z,4.70
2018-09-10T06:40:25.163Z,4.57
2018-09-10T06:45:28.990Z,4.97
2018-09-10T06:50:32.797Z,4.07
2018-09-10T06:55:36.958Z,3.30
2018-09-10T07:00:41.188Z,4.77
2018-09-10T07:05:45.295Z,6.03
2018-09-10T07:10:49.356Z,4.00
2018-09-10T07:15:53.583Z,3.20
2018-09-10T07:20:57.646Z,6.33
2018-09-10T07:26:01.734Z,5.30
2018-09-10T07:31:06.093Z,5.57
2018-09-10T07:36:09.902Z,5.60
2018-09-10T07:41:13.986Z,4.00
2018-09-10T07:46:18.042Z,4.60
2018-09-10T07:51:22.139Z,5.70
2018-09-10T07:56:26.247Z,4.58
2018-09-10T08:01:30.472Z,6.13
2018-09-10T08:06:34.301Z,7.83
2018-09-10T08:11:38.358Z,9.53
2018-09-10T08:16:42.492Z,8.40
2018-09-10T08:21:46.312Z,8.90
2018-09-10T08:26:50.429Z,9.23
2018-09-10T08:31:54.499Z,7.23
2018-09-10T08:36:58.326Z,7.20
2018-09-10T08:42:02.492Z,8.97
2018-09-10T08:47:06.676Z,6.77
2018-09-10T08:52:10.807Z,8.40
2018-09-10T08:57:14.905Z,8.70
2018-09-10T09:02:18.979Z,7.30
2018-09-10T09:07:24.020Z,8.93
2018-09-10T09:12:28.081Z,8.50
2018-09-10T09:17:33.354Z,6.30
2018-09-10T09:22:37.158Z,8.37
2018-09-10T09:27:42.223Z,7.23
2018-09-10T09:32:46.129Z,7.50
2018-09-10T09:37:55.478Z,8.87
2018-09-10T09:43:05.335Z,5.15
2018-09-10T09:48:09.138Z,6.67
2018-09-10T09:53:13.179Z,6.13
2018-09-10T09:58:17.239Z,5.83
2018-09-10T10:03:26.383Z,7.10
2018-09-10T10:08:30.465Z,7.53
2018-09-10T10:13:34.595Z,6.00
2018-09-10T10:18:38.630Z,6.83
2018-09-10T10:23:42.709Z,6.73
2018-09-10T10:28:46.835Z,6.63
2018-09-10T10:33:50.904Z,5.53
2018-09-10T10:38:55.007Z,6.97
2018-09-10T10:43:59.125Z,6.93
2018-09-10T10:49:03.201Z,7.07
2018-09-10T10:54:07.270Z,7.47
2018-09-10T10:59:11.352Z,7.93
2018-09-10T11:04:15.527Z,6.67
2018-09-10T11:09:19.596Z,5.80
2018-09-10T11:14:23.661Z,6.50
2018-09-10T11:19:27.731Z,5.93
2018-09-10T11:24:31.851Z,11.40
2018-09-10T11:29:35.931Z,5.60
2018-09-10T11:34:40.040Z,7.37
2018-09-10T11:39:44.630Z,3.17
2018-09-10T11:44:48.667Z,6.33
2018-09-10T11:49:52.792Z,5.27
2018-09-10T11:54:56.837Z,7.40
2018-09-10T12:00:00.905Z,4.30
2018-09-10T12:05:05.569Z,6.70
2018-09-10T12:10:09.379Z,7.17
2018-09-10T12:15:13.450Z,5.63
2018-09-10T12:20:17.233Z,7.33
2018-09-10T12:25:21.291Z,6.10
2018-09-10T12:30:25.310Z,7.30
2018-09-10T12:35:29.558Z,7.73
2018-09-10T12:40:33.610Z,13.00
2018-09-10T12:45:38.140Z,7.10
2018-09-10T12:50:42.186Z,9.13
2018-09-10T12:55:46.235Z,6.87
2018-09-10T13:00:50.368Z,7.43
2018-09-10T13:05:54.486Z,8.43
2018-09-10T13:10:58.366Z,5.30
2018-09-10T13:16:02.426Z,7.27
2018-09-10T13:21:06.295Z,6.20
2018-09-10T13:26:10.389Z,8.47
2018-09-10T13:31:14.459Z,10.20
2018-09-10T13:36:18.545Z,6.23
2018-09-10T13:41:22.639Z,7.87
2018-09-10T13:46:26.433Z,9.40
2018-09-10T13:51:30.252Z,8.37
2018-09-10T13:56:34.273Z,8.03
2018-09-10T14:01:38.374Z,6.53
2018-09-10T14:06:42.192Z,7.90
2018-09-10T14:11:46.339Z,6.33
2018-09-10T14:16:50.426Z,5.40
2018-09-10T14:21:54.481Z,6.43
2018-09-10T14:26:58.517Z,7.27
2018-09-10T14:32:02.579Z,7.17
2018-09-10T14:37:06.664Z,7.13
2018-09-10T14:42:10.935Z,7.33
2018-09-10T14:47:15.035Z,8.27
2018-09-10T14:52:19.087Z,6.43
2018-09-10T14:57:23.185Z,7.00
2018-09-10T15:02:27.320Z,5.93
2018-09-10T15:07:31.460Z,7.93
2018-09-10T15:12:35.782Z,8.90
2018-09-10T15:17:39.901Z,5.97
2018-09-10T15:22:44.048Z,8.40
2018-09-10T15:27:48.137Z,8.60
2018-09-10T15:32:52.016Z,8.17
2018-09-10T15:37:56.119Z,9.80
2018-09-10T15:43:00.225Z,7.60
2018-09-10T15:48:04.334Z,6.13
2018-09-10T15:53:08.391Z,7.00
2018-09-10T15:58:12.455Z,7.30
2018-09-10T16:03:16.602Z,6.80
2018-09-10T16:08:20.986Z,7.57
2018-09-10T16:13:25.054Z,6.50
2018-09-10T16:18:29.248Z,7.03
2018-09-10T16:23:33.363Z,6.23
2018-09-10T16:28:37.526Z,5.53
2018-09-10T16:33:41.429Z,8.47
2018-09-10T16:38:45.488Z,4.93
2018-09-10T16:43:49.545Z,5.17
2018-09-10T16:48:54.163Z,4.10
2018-09-10T16:53:58.024Z,5.37
2018-09-10T16:59:02.081Z,6.10
2018-09-10T17:04:06.168Z,5.40
2018-09-10T17:09:10.229Z,6.07
2018-09-10T17:14:14.318Z,4.50
2018-09-10T17:19:18.411Z,9.00
2018-09-10T17:24:22.519Z,4.70
2018-09-10T17:29:26.579Z,3.60
2018-09-10T17:34:30.728Z,3.50
2018-09-10T17:39:35.011Z,5.03
2018-09-10T17:44:39.034Z,5.37
2018-09-10T17:49:43.073Z,6.43
2018-09-10T17:54:47.162Z,5.60
2018-09-10T17:59:51.066Z,5.93
2018-09-10T18:04:55.147Z,4.93
2018-09-10T18:09:59.220Z,6.57
2018-09-10T18:15:04.817Z,7.63
2018-09-10T18:20:08.938Z,4.97
2018-09-10T18:25:13.076Z,7.13
2018-09-10T18:30:16.987Z,4.83
2018-09-10T18:35:21.138Z,5.20
2018-09-10T18:40:24.995Z,6.37
2018-09-10T18:45:28.947Z,7.57
2018-09-10T18:50:33.006Z,7.00
2018-09-10T18:55:36.906Z,5.93
2018-09-10T19:00:40.799Z,9.03
2018-09-10T19:05:44.813Z,5.60
2018-09-10T19:10:48.644Z,4.27
2018-09-10T19:15:52.786Z,4.93
2018-09-10T19:20:57.133Z,9.37
2018-09-10T19:26:01.212Z,5.77
2018-09-10T19:31:05.361Z,3.63
2018-09-10T19:36:09.433Z,5.63
2018-09-10T19:41:13.473Z,5.83
2018-09-10T19:46:17.287Z,5.43
2018-09-10T19:51:21.162Z,7.33
2018-09-10T19:56:25.000Z,7.17
2018-09-10T20:01:29.160Z,6.20
2018-09-10T20:06:33.234Z,5.10
2018-09-10T20:11:37.472Z,5.77
2018-09-10T20:16:41.335Z,6.27
2018-09-10T20:21:45.846Z,7.27
2018-09-10T20:26:49.706Z,6.50
2018-09-10T20:31:53.774Z,6.20
2018-09-10T20:36:57.826Z,6.60
2018-09-10T20:42:01.979Z,4.70
2018-09-10T20:47:06.884Z,4.87
2018-09-10T20:52:11.046Z,3.90
2018-09-10T20:57:15.182Z,6.20
2018-09-10T21:02:19.329Z,7.17
2018-09-10T21:07:23.602Z,6.80
2018-09-10T21:12:27.637Z,7.10
2018-09-10T21:17:31.468Z,7.00
2018-09-10T21:22:35.531Z,6.10
2018-09-10T21:27:39.560Z,7.13
2018-09-10T21:32:43.656Z,5.40
2018-09-10T21:37:47.728Z,7.30
2018-09-10T21:42:51.847Z,4.90
2018-09-10T21:47:56.384Z,9.67
2018-09-10T21:53:00.462Z,7.97
2018-09-10T21:58:04.540Z,7.23
2018-09-10T22:03:08.398Z,8.47
2018-09-10T22:08:12.465Z,7.60
2018-09-10T22:13:16.540Z,7.27
2018-09-10T22:18:20.562Z,8.67
2018-09-10T22:23:24.601Z,7.87
2018-09-10T22:28:28.741Z,6.40
2018-09-10T22:33:32.794Z,7.90
2018-09-10T22:38:36.833Z,7.73
2018-09-10T22:43:40.894Z,9.00
2018-09-10T22:48:45.023Z,6.20
2018-09-10T22:53:49.948Z,6.97
2018-09-10T22:58:54.368Z,5.30
2018-09-10T23:03:58.411Z,6.37
2018-09-10T23:09:02.460Z,6.27
2018-09-10T23:14:06.528Z,4.90
2018-09-10T23:19:17.241Z,7.53
2018-09-10T23:24:21.335Z,4.30
2018-09-10T23:29:25.400Z,6.93
2018-09-10T23:34:29.191Z,5.60
2018-09-10T23:39:32.994Z,5.42
2018-09-10T23:44:37.167Z,6.80
2018-09-10T23:49:41.255Z,6.63
2018-09-10T23:54:45.365Z,3.80
2018-09-10T23:59:49.447Z,4.90
